sensor_id;sensor_type;location;lat;lon;timestamp;pressure;altitude;pressure_sealevel;temperature;humidity
77212;BME280;66206;0.000;0.000;2024-02-04T00:01:16;98691.49;;;21.70;27.67
77212;BME280;66206;0.000;0.000;2024-02-04T00:03:42;98695.57;;;21.85;27.64
77212;BME280;66206;0.000;0.000;2024-02-04T00:06:09;98689.49;;;21.80;27.62
77212;BME280;66206;0.000;0.000;2024-02-04T00:08:36;98689.25;;;21.73;27.71
77212;BME280;66206;0.000;0.000;2024-02-04T00:11:03;98692.25;;;21.63;27.72
77212;BME280;66206;0.000;0.000;2024-02-04T00:13:30;98698.34;;;21.58;27.77
77212;BME280;66206;0.000;0.000;2024-02-04T00:15:56;98701.94;;;21.47;27.93
77212;BME280;66206;0.000;0.000;2024-02-04T00:18:23;98702.15;;;21.37;28.08
77212;BME280;66206;0.000;0.000;2024-02-04T00:20:50;98703.41;;;21.39;27.97
77212;BME280;66206;0.000;0.000;2024-02-04T00:23:16;98701.25;;;21.37;28.04
77212;BME280;66206;0.000;0.000;2024-02-04T00:25:43;98700.37;;;21.41;28.05
77212;BME280;66206;0.000;0.000;2024-02-04T00:28:10;98690.21;;;21.27;28.15
77212;BME280;66206;0.000;0.000;2024-02-04T00:30:37;98688.51;;;21.25;28.12
77212;BME280;66206;0.000;0.000;2024-02-04T00:33:03;98692.22;;;21.11;28.29
77212;BME280;66206;0.000;0.000;2024-02-04T00:35:30;98689.48;;;21.09;28.22
77212;BME280;66206;0.000;0.000;2024-02-04T00:37:57;98682.03;;;21.14;28.28
77212;BME280;66206;0.000;0.000;2024-02-04T00:40:24;98689.32;;;21.07;28.55
77212;BME280;66206;0.000;0.000;2024-02-04T00:42:51;98689.62;;;20.95;28.45
77212;BME280;66206;0.000;0.000;2024-02-04T00:45:17;98689.63;;;20.67;28.51
77212;BME280;66206;0.000;0.000;2024-02-04T00:47:44;98682.00;;;20.62;28.60
77212;BME280;66206;0.000;0.000;2024-02-04T00:50:11;98684.31;;;20.37;28.91
77212;BME280;66206;0.000;0.000;2024-02-04T00:52:38;98687.23;;;19.97;29.39
77212;BME280;66206;0.000;0.000;2024-02-04T00:55:05;98686.97;;;20.11;29.31
77212;BME280;66206;0.000;0.000;2024-02-04T00:57:32;98688.81;;;19.98;29.35
77212;BME280;66206;0.000;0.000;2024-02-04T00:59:58;98688.11;;;19.80;29.50
77212;BME280;66206;0.000;0.000;2024-02-04T01:02:25;98688.10;;;19.84;29.46
77212;BME280;66206;0.000;0.000;2024-02-04T01:04:52;98677.84;;;19.91;29.42
77212;BME280;66206;0.000;0.000;2024-02-04T01:07:19;98677.38;;;19.92;29.35
77212;BME280;66206;0.000;0.000;2024-02-04T01:09:45;98677.99;;;19.71;29.53
77212;BME280;66206;0.000;0.000;2024-02-04T01:12:12;98684.30;;;19.88;29.40
77212;BME280;66206;0.000;0.000;2024-02-04T01:14:39;98688.59;;;19.88;29.43
77212;BME280;66206;0.000;0.000;2024-02-04T01:17:06;98690.41;;;19.78;29.49
77212;BME280;66206;0.000;0.000;2024-02-04T01:19:32;98690.18;;;19.83;29.49
77212;BME280;66206;0.000;0.000;2024-02-04T01:21:59;98687.40;;;19.90;29.41
77212;BME280;66206;0.000;0.000;2024-02-04T01:24:26;98677.85;;;19.87;29.38
77212;BME280;66206;0.000;0.000;2024-02-04T01:26:52;98682.67;;;19.83;29.46
77212;BME280;66206;0.000;0.000;2024-02-04T01:29:19;98677.50;;;19.80;29.43
77212;BME280;66206;0.000;0.000;2024-02-04T01:31:46;98671.55;;;19.91;29.33
77212;BME280;66206;0.000;0.000;2024-02-04T01:34:13;98670.03;;;19.70;29.46
77212;BME280;66206;0.000;0.000;2024-02-04T01:36:39;98664.37;;;19.87;29.37
77212;BME280;66206;0.000;0.000;2024-02-04T01:39:06;98654.48;;;19.73;29.42
77212;BME280;66206;0.000;0.000;2024-02-04T01:41:33;98656.35;;;19.69;29.45
77212;BME280;66206;0.000;0.000;2024-02-04T01:43:59;98652.82;;;19.75;29.45
77212;BME280;66206;0.000;0.000;2024-02-04T01:46:26;98647.71;;;19.89;29.24
77212;BME280;66206;0.000;0.000;2024-02-04T01:48:53;98650.14;;;19.80;29.37
77212;BME280;66206;0.000;0.000;2024-02-04T01:51:20;98647.85;;;19.78;29.41
77212;BME280;66206;0.000;0.000;2024-02-04T01:53:47;98645.26;;;19.95;29.18
77212;BME280;66206;0.000;0.000;2024-02-04T01:56:15;98647.51;;;19.68;29.41
77212;BME280;66206;0.000;0.000;2024-02-04T01:58:42;98645.46;;;19.75;29.38
77212;BME280;66206;0.000;0.000;2024-02-04T02:01:09;98639.35;;;19.85;29.28
77212;BME280;66206;0.000;0.000;2024-02-04T02:03:36;98647.57;;;19.88;29.27
77212;BME280;66206;0.000;0.000;2024-02-04T02:06:05;98643.92;;;19.94;29.16
77212;BME280;66206;0.000;0.000;2024-02-04T02:08:31;98642.04;;;19.91;29.18
77212;BME280;66206;0.000;0.000;2024-02-04T02:11:02;98650.39;;;19.82;29.29
77212;BME280;66206;0.000;0.000;2024-02-04T02:13:27;98653.74;;;20.03;29.12
77212;BME280;66206;0.000;0.000;2024-02-04T02:15:56;98653.92;;;19.88;29.30
77212;BME280;66206;0.000;0.000;2024-02-04T02:18:27;98649.80;;;19.91;29.20
77212;BME280;66206;0.000;0.000;2024-02-04T02:20:59;98647.44;;;19.82;29.27
77212;BME280;66206;0.000;0.000;2024-02-04T09:56:17;98614.10;;;20.21;31.00
77212;BME280;66206;0.000;0.000;2024-02-04T09:58:44;98602.48;;;21.02;30.03
77212;BME280;66206;0.000;0.000;2024-02-04T10:01:11;98606.35;;;20.88;30.18
77212;BME280;66206;0.000;0.000;2024-02-04T10:03:39;98607.50;;;21.59;29.31
77212;BME280;66206;0.000;0.000;2024-02-04T10:06:07;98602.92;;;21.76;29.32
77212;BME280;66206;0.000;0.000;2024-02-04T10:08:34;98602.39;;;21.31;29.68
77212;BME280;66206;0.000;0.000;2024-02-04T10:11:02;98596.40;;;21.75;29.33
77212;BME280;66206;0.000;0.000;2024-02-04T10:13:29;98594.35;;;21.69;29.30
77212;BME280;66206;0.000;0.000;2024-02-04T10:15:56;98592.81;;;21.75;29.20
77212;BME280;66206;0.000;0.000;2024-02-04T10:18:23;98595.32;;;21.43;29.57
77212;BME280;66206;0.000;0.000;2024-02-04T10:20:50;98604.71;;;21.64;29.37
77212;BME280;66206;0.000;0.000;2024-02-04T10:23:17;98589.95;;;21.89;29.15
77212;BME280;66206;0.000;0.000;2024-02-04T10:25:44;98594.36;;;21.60;29.31
77212;BME280;66206;0.000;0.000;2024-02-04T10:28:11;98587.97;;;21.62;29.34
77212;BME280;66206;0.000;0.000;2024-02-04T10:30:38;98586.17;;;21.46;29.49
77212;BME280;66206;0.000;0.000;2024-02-04T10:33:05;98585.80;;;21.47;29.49
77212;BME280;66206;0.000;0.000;2024-02-04T10:35:32;98586.98;;;21.58;29.33
77212;BME280;66206;0.000;0.000;2024-02-04T10:37:59;98579.92;;;21.69;29.17
77212;BME280;66206;0.000;0.000;2024-02-04T10:40:26;98583.14;;;21.54;29.35
77212;BME280;66206;0.000;0.000;2024-02-04T10:42:53;98571.53;;;21.68;29.21
77212;BME280;66206;0.000;0.000;2024-02-04T10:45:19;98573.54;;;21.52;29.34
77212;BME280;66206;0.000;0.000;2024-02-04T10:47:50;98567.59;;;21.46;29.38
